Urbandale, Iowa
Current Conditions -  °F | °C
As of 2:54 PM on Friday 28 Nov 2014 (Local Time) from KDSM Reporting Station
Scattered Clouds Scattered Clouds  
Wind Chill:   Ceiling: Unl
Heat Index:   Visibility: 10mi
Dew Point: -1°   Wind: 13mph
Humidity: 62%   Direction: 160°SSE
Pressure: 29.79"   Gusts: NA
Location:  41.63°N, 93.71°W
Report Text: KDSM 282054Z 16011KT 10SM FEW160 FEW200 SCT260 06/M01 A2979 RMK AO2 SLP099 T00561011 56021
Loading
Personal Weather Stations






























Interactive Weather Map New forecast layout! Learn more

10-Day Weather Forecast

Advertisements
Track Severe Weather on mobile